Lake Charles, LA

2:43 AM CST on November 23, 2014 (GMT -0600)
Lake Charles Regional | Change Station
CLOSE
Current Station
Airport
Location: Lake Charles Regional,
Elevation: 7 ft
Nearby Weather Stations

Elev 7 ft 30.13 °N, 93.22 °W | Updated 11 minutes ago

Rain
Rain
66 °F
Feels Like 66 °F
N
15
Wind Variable Wind from East
Gusts 23 mph

Today
High -- | Low -- °F
--% Chance of Precip.
Yesterday
High -- | Low -- °F
Precip. -- in
6:44 AM 5:13 PM
New Moon, 1% visible
Pressure 29.66 in
Visibility 1.8 miles
Clouds Few 400 ft
Mostly Cloudy 3600 ft
Overcast 4800 ft
Dew Point 65 °F
Humidity 96%
Rainfall 0.47 in
Snow Depth Not available.
UV 0 out of 12
Pollen 2.40 out of 12
Air Quality Not available.
Flu Activity Not available.
SPECI KLCH 230832Z AUTO 08013G20KT 1 3/4SM +RA BR FEW004 BKN036 OVC048 19/18 A2966 RMK AO2 P0036 T01890183

More Conditions Fewer Conditions

Pressure 29.66 in
Visibility 1.8 miles
Clouds Few 400 ft
Mostly Cloudy 3600 ft
Overcast 4800 ft
Dew Point 65 °F
Humidity 96%
Rainfall 0.47 in
Snow Depth Not available.
UV 0 out of 12
Pollen 2.40 out of 12
Air Quality Not available.
Flu Activity Not available.
SPECI KLCH 230832Z AUTO 08013G20KT 1 3/4SM +RA BR FEW004 BKN036 OVC048 19/18 A2966 RMK AO2 P0036 T01890183

More Conditions Fewer Conditions

Nowcast | as of 12:42 am CST on November 23, 2014

A line of storms are marching into the southwest Louisiana coastal waters at this time. Storms are moving east this morning. Elsewhere... showers and rain mixed continues to fall across southeast Texas and southern Louisiana including the coastal waters. These storms are moving northeast.

×

10-Day Weather Forecast

Almanac

Astronomy

Nov. 23, 2014 Rise Set
Actual Time
Civil Twilight
Nautical Twilight
Astronomical Twilight
Moon
Length of Visible Light
Length of Day
Tomorrow will be .
, % of the Moon is Illuminated

Today's Extremes

State Highs State Lows

Community

WunderPhotos

Upload Photos

1,773,024 photos uploaded!

WunderBlogs® & News

Nearby

Air Quality

  Air Quality AQ Index Pollutant
Not available.

Snow Depth

Station Depth Elevation

Earthquake Activity

City Distance Mag. Time & Date
Minimum magnitude displayed is 2.5.

Coastal Water Temperatures

Place Temperature

Nearby Weather Stations